sensor_id;sensor_type;location;lat;lon;timestamp;temperature;humidity
6627;DHT22;3349;49.830;8.748;2023-06-10T00:01:26;16.60;92.30
6627;DHT22;3349;49.830;8.748;2023-06-10T00:03:53;16.50;91.90
6627;DHT22;3349;49.830;8.748;2023-06-10T00:06:20;16.50;92.60
6627;DHT22;3349;49.830;8.748;2023-06-10T00:08:51;16.50;92.50
6627;DHT22;3349;49.830;8.748;2023-06-10T00:11:17;16.40;92.60
6627;DHT22;3349;49.830;8.748;2023-06-10T00:13:44;16.40;92.70
6627;DHT22;3349;49.830;8.748;2023-06-10T00:16:11;16.40;92.20
6627;DHT22;3349;49.830;8.748;2023-06-10T00:18:38;16.30;92.40
6627;DHT22;3349;49.830;8.748;2023-06-10T00:21:05;16.30;92.30
6627;DHT22;3349;49.830;8.748;2023-06-10T00:23:31;16.30;92.50
6627;DHT22;3349;49.830;8.748;2023-06-10T00:26:04;16.20;92.30
6627;DHT22;3349;49.830;8.748;2023-06-10T00:28:31;16.20;92.40
6627;DHT22;3349;49.830;8.748;2023-06-10T00:30:58;16.20;92.60
6627;DHT22;3349;49.830;8.748;2023-06-10T00:33:25;16.10;93.20
6627;DHT22;3349;49.830;8.748;2023-06-10T00:35:51;16.10;93.20
6627;DHT22;3349;49.830;8.748;2023-06-10T00:38:18;16.00;93.40
6627;DHT22;3349;49.830;8.748;2023-06-10T00:40:45;16.00;93.50
6627;DHT22;3349;49.830;8.748;2023-06-10T00:43:13;16.00;93.60
6627;DHT22;3349;49.830;8.748;2023-06-10T00:45:40;15.90;94.00
6627;DHT22;3349;49.830;8.748;2023-06-10T00:48:07;15.90;93.80
6627;DHT22;3349;49.830;8.748;2023-06-10T00:50:34;15.80;94.10
6627;DHT22;3349;49.830;8.748;2023-06-10T00:53:05;15.80;94.10
6627;DHT22;3349;49.830;8.748;2023-06-10T00:55:32;15.80;93.80
6627;DHT22;3349;49.830;8.748;2023-06-10T00:57:59;15.80;94.00
6627;DHT22;3349;49.830;8.748;2023-06-10T01:00:27;15.70;93.90
6627;DHT22;3349;49.830;8.748;2023-06-10T01:02:54;15.70;93.90
6627;DHT22;3349;49.830;8.748;2023-06-10T01:05:21;15.70;94.40
6627;DHT22;3349;49.830;8.748;2023-06-10T01:07:54;15.60;94.40
6627;DHT22;3349;49.830;8.748;2023-06-10T01:10:28;15.60;94.60
6627;DHT22;3349;49.830;8.748;2023-06-10T01:12:59;15.60;94.50
6627;DHT22;3349;49.830;8.748;2023-06-10T01:15:29;15.60;94.70
6627;DHT22;3349;49.830;8.748;2023-06-10T01:17:58;15.50;95.00
6627;DHT22;3349;49.830;8.748;2023-06-10T01:20:25;15.50;95.40
6627;DHT22;3349;49.830;8.748;2023-06-10T01:22:54;15.40;95.00
6627;DHT22;3349;49.830;8.748;2023-06-10T01:25:23;15.40;95.00
6627;DHT22;3349;49.830;8.748;2023-06-10T01:27:56;15.30;95.10
6627;DHT22;3349;49.830;8.748;2023-06-10T01:30:28;15.20;95.10
6627;DHT22;3349;49.830;8.748;2023-06-10T01:32:58;15.20;95.60
6627;DHT22;3349;49.830;8.748;2023-06-10T01:35:26;15.20;95.80
6627;DHT22;3349;49.830;8.748;2023-06-10T01:37:57;15.10;96.00
6627;DHT22;3349;49.830;8.748;2023-06-10T01:40:25;15.10;96.10
6627;DHT22;3349;49.830;8.748;2023-06-10T01:42:53;15.10;96.50
6627;DHT22;3349;49.830;8.748;2023-06-10T01:45:19;15.10;96.90
6627;DHT22;3349;49.830;8.748;2023-06-10T01:47:46;15.10;96.10
6627;DHT22;3349;49.830;8.748;2023-06-10T01:50:13;15.00;96.20
6627;DHT22;3349;49.830;8.748;2023-06-10T01:52:40;14.90;96.70
6627;DHT22;3349;49.830;8.748;2023-06-10T01:55:08;14.80;97.00
6627;DHT22;3349;49.830;8.748;2023-06-10T01:57:35;14.80;97.30
6627;DHT22;3349;49.830;8.748;2023-06-10T02:00:02;14.70;97.50
6627;DHT22;3349;49.830;8.748;2023-06-10T02:02:28;14.70;98.00
6627;DHT22;3349;49.830;8.748;2023-06-10T02:04:55;14.70;97.70
6627;DHT22;3349;49.830;8.748;2023-06-10T02:07:22;14.70;97.80
6627;DHT22;3349;49.830;8.748;2023-06-10T02:09:49;14.70;97.70
6627;DHT22;3349;49.830;8.748;2023-06-10T02:12:17;14.70;97.50
6627;DHT22;3349;49.830;8.748;2023-06-10T02:14:44;14.70;98.00
6627;DHT22;3349;49.830;8.748;2023-06-10T02:17:11;14.70;98.10
6627;DHT22;3349;49.830;8.748;2023-06-10T02:19:40;14.70;97.40
6627;DHT22;3349;49.830;8.748;2023-06-10T02:22:08;14.70;97.60
6627;DHT22;3349;49.830;8.748;2023-06-10T02:24:35;14.60;97.40
6627;DHT22;3349;49.830;8.748;2023-06-10T02:27:04;14.60;97.70
6627;DHT22;3349;49.830;8.748;2023-06-10T02:29:33;14.60;97.50
6627;DHT22;3349;49.830;8.748;2023-06-10T02:32:01;14.50;97.70
6627;DHT22;3349;49.830;8.748;2023-06-10T02:34:28;14.50;98.30
6627;DHT22;3349;49.830;8.748;2023-06-10T02:36:55;14.50;98.20
6627;DHT22;3349;49.830;8.748;2023-06-10T02:39:21;14.50;97.70
6627;DHT22;3349;49.830;8.748;2023-06-10T02:41:48;14.40;97.60
6627;DHT22;3349;49.830;8.748;2023-06-10T02:44:15;14.40;97.90
6627;DHT22;3349;49.830;8.748;2023-06-10T02:46:43;14.40;98.00
6627;DHT22;3349;49.830;8.748;2023-06-10T02:49:09;14.40;98.10
6627;DHT22;3349;49.830;8.748;2023-06-10T02:51:36;14.30;97.90
6627;DHT22;3349;49.830;8.748;2023-06-10T02:54:03;14.30;97.80
6627;DHT22;3349;49.830;8.748;2023-06-10T02:56:30;14.30;98.20
6627;DHT22;3349;49.830;8.748;2023-06-10T02:58:58;14.10;98.50
6627;DHT22;3349;49.830;8.748;2023-06-10T03:01:25;14.10;98.80
6627;DHT22;3349;49.830;8.748;2023-06-10T03:03:54;14.10;98.80
6627;DHT22;3349;49.830;8.748;2023-06-10T03:06:21;14.10;99.10
6627;DHT22;3349;49.830;8.748;2023-06-10T03:08:49;14.10;99.60
6627;DHT22;3349;49.830;8.748;2023-06-10T03:11:17;14.10;99.10
6627;DHT22;3349;49.830;8.748;2023-06-10T03:13:44;14.10;99.20
6627;DHT22;3349;49.830;8.748;2023-06-10T03:16:12;14.00;98.70
6627;DHT22;3349;49.830;8.748;2023-06-10T03:18:38;14.10;99.00
6627;DHT22;3349;49.830;8.748;2023-06-10T03:21:06;14.00;98.50
6627;DHT22;3349;49.830;8.748;2023-06-10T03:23:34;14.00;98.40
6627;DHT22;3349;49.830;8.748;2023-06-10T03:26:02;14.00;98.90
6627;DHT22;3349;49.830;8.748;2023-06-10T03:28:30;14.00;98.50
6627;DHT22;3349;49.830;8.748;2023-06-10T03:30:57;13.90;98.90
6627;DHT22;3349;49.830;8.748;2023-06-10T03:33:23;13.90;98.80
6627;DHT22;3349;49.830;8.748;2023-06-10T03:35:51;13.80;99.40
6627;DHT22;3349;49.830;8.748;2023-06-10T03:38:19;13.80;99.50
6627;DHT22;3349;49.830;8.748;2023-06-10T03:40:47;13.90;99.80
6627;DHT22;3349;49.830;8.748;2023-06-10T03:43:13;13.90;99.90
6627;DHT22;3349;49.830;8.748;2023-06-10T03:45:40;13.90;99.50
6627;DHT22;3349;49.830;8.748;2023-06-10T03:48:07;13.90;99.50
6627;DHT22;3349;49.830;8.748;2023-06-10T03:50:34;13.90;99.50
6627;DHT22;3349;49.830;8.748;2023-06-10T03:53:01;14.00;99.40
6627;DHT22;3349;49.830;8.748;2023-06-10T03:55:29;14.00;99.20
6627;DHT22;3349;49.830;8.748;2023-06-10T03:57:56;14.10;98.90
6627;DHT22;3349;49.830;8.748;2023-06-10T04:00:23;14.10;99.00
6627;DHT22;3349;49.830;8.748;2023-06-10T04:02:50;14.10;98.80
6627;DHT22;3349;49.830;8.748;2023-06-10T04:05:18;14.10;98.40
6627;DHT22;3349;49.830;8.748;2023-06-10T04:07:47;14.10;98.70
6627;DHT22;3349;49.830;8.748;2023-06-10T04:10:14;14.10;98.40
6627;DHT22;3349;49.830;8.748;2023-06-10T04:12:42;14.10;98.50
6627;DHT22;3349;49.830;8.748;2023-06-10T04:15:09;14.20;98.60
6627;DHT22;3349;49.830;8.748;2023-06-10T04:17:36;14.30;98.70
6627;DHT22;3349;49.830;8.748;2023-06-10T04:20:03;14.30;98.90
6627;DHT22;3349;49.830;8.748;2023-06-10T04:22:33;14.40;99.20
6627;DHT22;3349;49.830;8.748;2023-06-10T04:24:59;14.40;99.30
6627;DHT22;3349;49.830;8.748;2023-06-10T04:27:26;14.40;99.40
6627;DHT22;3349;49.830;8.748;2023-06-10T04:29:54;14.40;99.70
6627;DHT22;3349;49.830;8.748;2023-06-10T04:32:21;14.50;99.90
6627;DHT22;3349;49.830;8.748;2023-06-10T04:34:48;14.60;99.90
6627;DHT22;3349;49.830;8.748;2023-06-10T04:37:15;14.70;99.80
6627;DHT22;3349;49.830;8.748;2023-06-10T04:39:41;14.80;98.60
6627;DHT22;3349;49.830;8.748;2023-06-10T04:42:08;14.90;99.00
6627;DHT22;3349;49.830;8.748;2023-06-10T04:44:35;15.00;98.70
6627;DHT22;3349;49.830;8.748;2023-06-10T04:47:03;15.00;99.00
6627;DHT22;3349;49.830;8.748;2023-06-10T04:49:30;15.10;99.20
6627;DHT22;3349;49.830;8.748;2023-06-10T04:51:57;15.20;99.40
6627;DHT22;3349;49.830;8.748;2023-06-10T04:54:25;15.20;99.70
6627;DHT22;3349;49.830;8.748;2023-06-10T04:56:52;15.30;99.10
6627;DHT22;3349;49.830;8.748;2023-06-10T04:59:19;15.40;98.30
6627;DHT22;3349;49.830;8.748;2023-06-10T05:01:46;15.60;97.40
6627;DHT22;3349;49.830;8.748;2023-06-10T05:04:14;15.70;97.30
6627;DHT22;3349;49.830;8.748;2023-06-10T05:06:41;15.80;97.00
6627;DHT22;3349;49.830;8.748;2023-06-10T05:09:09;15.90;97.00
6627;DHT22;3349;49.830;8.748;2023-06-10T05:11:36;16.00;97.30
6627;DHT22;3349;49.830;8.748;2023-06-10T05:14:03;16.00;97.80
6627;DHT22;3349;49.830;8.748;2023-06-10T05:16:30;16.10;97.80
6627;DHT22;3349;49.830;8.748;2023-06-10T05:18:57;16.20;98.00
6627;DHT22;3349;49.830;8.748;2023-06-10T05:21:25;16.30;97.80
6627;DHT22;3349;49.830;8.748;2023-06-10T05:23:52;16.40;97.30
6627;DHT22;3349;49.830;8.748;2023-06-10T05:26:19;16.50;96.40
6627;DHT22;3349;49.830;8.748;2023-06-10T05:28:45;16.60;95.50
6627;DHT22;3349;49.830;8.748;2023-06-10T05:31:12;16.70;94.50
6627;DHT22;3349;49.830;8.748;2023-06-10T05:33:39;16.80;93.80
6627;DHT22;3349;49.830;8.748;2023-06-10T05:36:06;16.90;93.50
6627;DHT22;3349;49.830;8.748;2023-06-10T05:38:34;17.00;93.10
6627;DHT22;3349;49.830;8.748;2023-06-10T05:41:01;17.10;93.10
6627;DHT22;3349;49.830;8.748;2023-06-10T05:43:27;17.20;92.10
6627;DHT22;3349;49.830;8.748;2023-06-10T05:45:54;17.30;90.10
6627;DHT22;3349;49.830;8.748;2023-06-10T05:48:21;17.40;87.20
6627;DHT22;3349;49.830;8.748;2023-06-10T05:50:47;17.50;86.10
6627;DHT22;3349;49.830;8.748;2023-06-10T05:53:14;17.60;85.40
6627;DHT22;3349;49.830;8.748;2023-06-10T05:55:43;17.50;84.40
6627;DHT22;3349;49.830;8.748;2023-06-10T05:58:10;17.70;82.10
6627;DHT22;3349;49.830;8.748;2023-06-10T06:00:38;17.80;82.20
6627;DHT22;3349;49.830;8.748;2023-06-10T06:03:06;17.80;81.00
6627;DHT22;3349;49.830;8.748;2023-06-10T06:05:33;17.90;81.30
6627;DHT22;3349;49.830;8.748;2023-06-10T06:08:01;18.00;81.60
6627;DHT22;3349;49.830;8.748;2023-06-10T06:10:28;18.10;81.10
6627;DHT22;3349;49.830;8.748;2023-06-10T06:12:56;18.20;79.40
6627;DHT22;3349;49.830;8.748;2023-06-10T06:15:23;18.30;77.90
6627;DHT22;3349;49.830;8.748;2023-06-10T06:17:49;18.30;77.40
6627;DHT22;3349;49.830;8.748;2023-06-10T06:20:18;18.40;75.90
6627;DHT22;3349;49.830;8.748;2023-06-10T06:22:44;18.40;74.00
6627;DHT22;3349;49.830;8.748;2023-06-10T06:25:11;18.60;74.00
6627;DHT22;3349;49.830;8.748;2023-06-10T06:27:38;18.70;74.30
6627;DHT22;3349;49.830;8.748;2023-06-10T06:30:07;18.80;72.80
6627;DHT22;3349;49.830;8.748;2023-06-10T06:32:34;18.80;71.60
6627;DHT22;3349;49.830;8.748;2023-06-10T06:35:01;19.00;70.10
6627;DHT22;3349;49.830;8.748;2023-06-10T06:37:28;19.10;69.60
6627;DHT22;3349;49.830;8.748;2023-06-10T06:39:54;19.20;70.60
6627;DHT22;3349;49.830;8.748;2023-06-10T06:42:21;19.20;69.80
6627;DHT22;3349;49.830;8.748;2023-06-10T06:44:48;19.40;70.00
6627;DHT22;3349;49.830;8.748;2023-06-10T06:47:16;19.50;68.50
6627;DHT22;3349;49.830;8.748;2023-06-10T06:49:45;19.60;67.30
6627;DHT22;3349;49.830;8.748;2023-06-10T06:52:11;19.70;66.90
6627;DHT22;3349;49.830;8.748;2023-06-10T06:54:38;19.80;66.10
6627;DHT22;3349;49.830;8.748;2023-06-10T06:57:05;19.90;65.70
6627;DHT22;3349;49.830;8.748;2023-06-10T06:59:32;20.00;64.40
6627;DHT22;3349;49.830;8.748;2023-06-10T07:01:59;20.10;65.30
6627;DHT22;3349;49.830;8.748;2023-06-10T07:04:27;20.10;64.80
6627;DHT22;3349;49.830;8.748;2023-06-10T07:06:54;20.20;66.00
6627;DHT22;3349;49.830;8.748;2023-06-10T07:09:21;20.30;66.80
6627;DHT22;3349;49.830;8.748;2023-06-10T07:11:47;20.40;64.50
6627;DHT22;3349;49.830;8.748;2023-06-10T07:14:14;20.50;63.30
6627;DHT22;3349;49.830;8.748;2023-06-10T07:16:41;20.60;63.10
6627;DHT22;3349;49.830;8.748;2023-06-10T07:19:08;20.60;61.50
6627;DHT22;3349;49.830;8.748;2023-06-10T07:21:36;20.80;61.90
6627;DHT22;3349;49.830;8.748;2023-06-10T07:24:03;20.90;60.30
6627;DHT22;3349;49.830;8.748;2023-06-10T07:26:30;21.00;60.00
6627;DHT22;3349;49.830;8.748;2023-06-10T07:28:57;21.10;57.80
6627;DHT22;3349;49.830;8.748;2023-06-10T07:31:24;21.30;57.90
6627;DHT22;3349;49.830;8.748;2023-06-10T07:33:51;21.40;58.10
6627;DHT22;3349;49.830;8.748;2023-06-10T07:36:17;21.50;58.00
6627;DHT22;3349;49.830;8.748;2023-06-10T07:38:45;21.70;57.80
6627;DHT22;3349;49.830;8.748;2023-06-10T07:41:12;21.80;56.70
6627;DHT22;3349;49.830;8.748;2023-06-10T07:43:39;22.00;56.50
6627;DHT22;3349;49.830;8.748;2023-06-10T07:46:06;22.10;56.40
6627;DHT22;3349;49.830;8.748;2023-06-10T07:48:33;22.30;56.00
6627;DHT22;3349;49.830;8.748;2023-06-10T07:50:59;22.60;54.20
6627;DHT22;3349;49.830;8.748;2023-06-10T07:53:26;22.80;53.40
6627;DHT22;3349;49.830;8.748;2023-06-10T07:55:55;23.00;53.30
6627;DHT22;3349;49.830;8.748;2023-06-10T07:58:21;23.30;52.40
6627;DHT22;3349;49.830;8.748;2023-06-10T08:00:48;23.40;49.70
6627;DHT22;3349;49.830;8.748;2023-06-10T08:03:15;23.70;49.70
6627;DHT22;3349;49.830;8.748;2023-06-10T08:05:42;23.80;47.70
6627;DHT22;3349;49.830;8.748;2023-06-10T08:08:08;24.10;47.00
6627;DHT22;3349;49.830;8.748;2023-06-10T08:10:35;24.20;45.90
6627;DHT22;3349;49.830;8.748;2023-06-10T08:13:03;24.40;46.00
6627;DHT22;3349;49.830;8.748;2023-06-10T08:15:30;24.60;46.10
6627;DHT22;3349;49.830;8.748;2023-06-10T08:17:57;24.90;44.80
6627;DHT22;3349;49.830;8.748;2023-06-10T08:20:24;25.10;45.00
6627;DHT22;3349;49.830;8.748;2023-06-10T08:22:51;25.40;44.60
6627;DHT22;3349;49.830;8.748;2023-06-10T08:25:17;25.60;44.30
6627;DHT22;3349;49.830;8.748;2023-06-10T08:27:44;26.20;43.80
6627;DHT22;3349;49.830;8.748;2023-06-10T08:30:12;26.50;41.90
6627;DHT22;3349;49.830;8.748;2023-06-10T08:32:39;27.40;40.00
6627;DHT22;3349;49.830;8.748;2023-06-10T08:35:07;28.50;38.20
6627;DHT22;3349;49.830;8.748;2023-06-10T08:37:33;29.30;35.70
6627;DHT22;3349;49.830;8.748;2023-06-10T08:40:00;29.80;34.50
6627;DHT22;3349;49.830;8.748;2023-06-10T08:42:31;30.60;32.30
6627;DHT22;3349;49.830;8.748;2023-06-10T08:45:02;31.60;30.80
6627;DHT22;3349;49.830;8.748;2023-06-10T08:47:30;32.20;29.00
6627;DHT22;3349;49.830;8.748;2023-06-10T08:50:03;32.70;28.60
6627;DHT22;3349;49.830;8.748;2023-06-10T08:52:35;32.60;28.50
6627;DHT22;3349;49.830;8.748;2023-06-10T08:55:04;33.20;28.30
6627;DHT22;3349;49.830;8.748;2023-06-10T08:57:31;33.70;28.00
6627;DHT22;3349;49.830;8.748;2023-06-10T08:59:58;34.30;27.20
6627;DHT22;3349;49.830;8.748;2023-06-10T09:02:24;34.90;25.60
6627;DHT22;3349;49.830;8.748;2023-06-10T09:04:53;35.20;26.20
6627;DHT22;3349;49.830;8.748;2023-06-10T09:07:22;35.30;25.40
6627;DHT22;3349;49.830;8.748;2023-06-10T09:09:50;34.80;25.20
6627;DHT22;3349;49.830;8.748;2023-06-10T09:12:19;35.60;25.40
6627;DHT22;3349;49.830;8.748;2023-06-10T09:14:46;35.70;24.40
6627;DHT22;3349;49.830;8.748;2023-06-10T09:17:16;35.10;24.70
6627;DHT22;3349;49.830;8.748;2023-06-10T09:19:44;35.70;25.40
6627;DHT22;3349;49.830;8.748;2023-06-10T09:22:12;36.00;25.00
6627;DHT22;3349;49.830;8.748;2023-06-10T09:24:39;36.20;24.10
6627;DHT22;3349;49.830;8.748;2023-06-10T09:27:08;36.70;23.70
6627;DHT22;3349;49.830;8.748;2023-06-10T09:29:46;36.60;23.70
6627;DHT22;3349;49.830;8.748;2023-06-10T09:32:13;36.90;23.40
6627;DHT22;3349;49.830;8.748;2023-06-10T09:34:40;37.10;23.00
6627;DHT22;3349;49.830;8.748;2023-06-10T09:37:07;37.30;22.50
6627;DHT22;3349;49.830;8.748;2023-06-10T09:39:38;37.50;22.50
6627;DHT22;3349;49.830;8.748;2023-06-10T09:42:15;37.40;22.10
6627;DHT22;3349;49.830;8.748;2023-06-10T09:44:49;37.40;21.80
6627;DHT22;3349;49.830;8.748;2023-06-10T09:47:20;37.50;22.20
6627;DHT22;3349;49.830;8.748;2023-06-10T09:49:47;38.00;21.90
6627;DHT22;3349;49.830;8.748;2023-06-10T09:52:21;37.80;22.00
6627;DHT22;3349;49.830;8.748;2023-06-10T09:54:49;38.00;21.30
6627;DHT22;3349;49.830;8.748;2023-06-10T09:57:17;38.20;21.20
6627;DHT22;3349;49.830;8.748;2023-06-10T09:59:45;38.00;21.80
6627;DHT22;3349;49.830;8.748;2023-06-10T10:02:14;38.00;20.80
6627;DHT22;3349;49.830;8.748;2023-06-10T10:04:40;38.60;21.30
6627;DHT22;3349;49.830;8.748;2023-06-10T10:07:07;38.10;20.60
6627;DHT22;3349;49.830;8.748;2023-06-10T10:09:35;38.90;20.70
6627;DHT22;3349;49.830;8.748;2023-06-10T10:12:09;38.60;20.00
6627;DHT22;3349;49.830;8.748;2023-06-10T10:14:37;38.60;20.40
6627;DHT22;3349;49.830;8.748;2023-06-10T10:17:08;39.40;20.00
6627;DHT22;3349;49.830;8.748;2023-06-10T10:19:39;38.80;19.80
6627;DHT22;3349;49.830;8.748;2023-06-10T10:22:08;38.40;19.60
6627;DHT22;3349;49.830;8.748;2023-06-10T10:24:40;38.00;20.50
6627;DHT22;3349;49.830;8.748;2023-06-10T10:27:14;39.10;19.90
6627;DHT22;3349;49.830;8.748;2023-06-10T10:29:43;39.00;19.00
6627;DHT22;3349;49.830;8.748;2023-06-10T10:32:12;39.10;18.30
6627;DHT22;3349;49.830;8.748;2023-06-10T10:34:43;38.70;18.40
6627;DHT22;3349;49.830;8.748;2023-06-10T10:37:13;39.30;18.20
6627;DHT22;3349;49.830;8.748;2023-06-10T10:39:40;39.10;18.20
6627;DHT22;3349;49.830;8.748;2023-06-10T10:42:08;39.80;17.80
6627;DHT22;3349;49.830;8.748;2023-06-10T10:44:37;39.40;17.80
6627;DHT22;3349;49.830;8.748;2023-06-10T10:47:06;38.60;17.70
6627;DHT22;3349;49.830;8.748;2023-06-10T10:49:35;38.60;18.10
6627;DHT22;3349;49.830;8.748;2023-06-10T10:52:04;39.40;17.10
6627;DHT22;3349;49.830;8.748;2023-06-10T10:54:33;39.80;17.00
6627;DHT22;3349;49.830;8.748;2023-06-10T10:57:16;39.40;17.00
6627;DHT22;3349;49.830;8.748;2023-06-10T10:59:52;40.00;16.60
6627;DHT22;3349;49.830;8.748;2023-06-10T11:02:33;40.10;16.70
6627;DHT22;3349;49.830;8.748;2023-06-10T11:05:01;40.30;16.10
6627;DHT22;3349;49.830;8.748;2023-06-10T11:07:32;39.90;16.60
6627;DHT22;3349;49.830;8.748;2023-06-10T11:10:00;39.80;16.60
6627;DHT22;3349;49.830;8.748;2023-06-10T11:12:50;39.60;16.40
6627;DHT22;3349;49.830;8.748;2023-06-10T11:15:23;40.20;16.70
6627;DHT22;3349;49.830;8.748;2023-06-10T11:18:09;40.50;15.80
6627;DHT22;3349;49.830;8.748;2023-06-10T11:20:52;40.00;16.60
6627;DHT22;3349;49.830;8.748;2023-06-10T11:23:33;39.70;16.60
6627;DHT22;3349;49.830;8.748;2023-06-10T11:26:13;39.50;16.90
6627;DHT22;3349;49.830;8.748;2023-06-10T11:28:41;39.20;17.20
6627;DHT22;3349;49.830;8.748;2023-06-10T11:31:13;38.90;17.40
6627;DHT22;3349;49.830;8.748;2023-06-10T11:33:46;39.10;16.50
6627;DHT22;3349;49.830;8.748;2023-06-10T11:36:14;38.80;16.40
6627;DHT22;3349;49.830;8.748;2023-06-10T11:38:41;37.90;17.20
6627;DHT22;3349;49.830;8.748;2023-06-10T11:41:08;36.80;18.80
6627;DHT22;3349;49.830;8.748;2023-06-10T11:43:36;35.40;19.40
6627;DHT22;3349;49.830;8.748;2023-06-10T11:46:03;34.80;21.20
6627;DHT22;3349;49.830;8.748;2023-06-10T11:48:34;35.40;21.10
6627;DHT22;3349;49.830;8.748;2023-06-10T11:51:05;36.50;19.70
6627;DHT22;3349;49.830;8.748;2023-06-10T11:53:32;37.10;18.90
6627;DHT22;3349;49.830;8.748;2023-06-10T11:55:59;37.60;18.00
6627;DHT22;3349;49.830;8.748;2023-06-10T11:58:25;37.50;17.70
6627;DHT22;3349;49.830;8.748;2023-06-10T12:00:54;37.90;17.90
6627;DHT22;3349;49.830;8.748;2023-06-10T12:03:21;37.60;18.30
6627;DHT22;3349;49.830;8.748;2023-06-10T12:05:57;36.80;18.80
6627;DHT22;3349;49.830;8.748;2023-06-10T12:08:25;36.60;18.70
6627;DHT22;3349;49.830;8.748;2023-06-10T12:10:53;37.40;18.40
6627;DHT22;3349;49.830;8.748;2023-06-10T12:13:20;37.50;17.90
6627;DHT22;3349;49.830;8.748;2023-06-10T12:15:47;36.20;18.50
6627;DHT22;3349;49.830;8.748;2023-06-10T12:18:17;34.80;19.90
6627;DHT22;3349;49.830;8.748;2023-06-10T12:20:44;34.70;21.00
6627;DHT22;3349;49.830;8.748;2023-06-10T12:23:13;35.60;20.80
6627;DHT22;3349;49.830;8.748;2023-06-10T12:25:39;36.30;20.50
6627;DHT22;3349;49.830;8.748;2023-06-10T12:28:16;36.90;18.80
6627;DHT22;3349;49.830;8.748;2023-06-10T12:30:43;37.60;18.80
6627;DHT22;3349;49.830;8.748;2023-06-10T12:33:16;37.70;18.10
6627;DHT22;3349;49.830;8.748;2023-06-10T12:35:47;37.30;18.00
6627;DHT22;3349;49.830;8.748;2023-06-10T12:38:21;38.00;18.70
6627;DHT22;3349;49.830;8.748;2023-06-10T12:40:48;37.90;18.40
6627;DHT22;3349;49.830;8.748;2023-06-10T12:43:19;38.10;18.40
6627;DHT22;3349;49.830;8.748;2023-06-10T12:45:46;37.80;17.70
6627;DHT22;3349;49.830;8.748;2023-06-10T12:48:18;37.90;17.70
6627;DHT22;3349;49.830;8.748;2023-06-10T12:50:50;36.80;18.80
6627;DHT22;3349;49.830;8.748;2023-06-10T12:53:19;36.10;18.90
6627;DHT22;3349;49.830;8.748;2023-06-10T12:55:48;34.90;20.10
6627;DHT22;3349;49.830;8.748;2023-06-10T12:58:15;34.00;21.80
6627;DHT22;3349;49.830;8.748;2023-06-10T13:00:42;33.90;21.80
6627;DHT22;3349;49.830;8.748;2023-06-10T13:03:10;34.30;21.30
6627;DHT22;3349;49.830;8.748;2023-06-10T13:05:37;34.80;21.50
6627;DHT22;3349;49.830;8.748;2023-06-10T13:08:04;35.50;21.00
6627;DHT22;3349;49.830;8.748;2023-06-10T13:10:33;36.30;19.70
6627;DHT22;3349;49.830;8.748;2023-06-10T13:13:00;36.70;18.70
6627;DHT22;3349;49.830;8.748;2023-06-10T13:15:28;36.60;18.70
6627;DHT22;3349;49.830;8.748;2023-06-10T13:17:55;36.70;18.70
6627;DHT22;3349;49.830;8.748;2023-06-10T13:20:22;36.70;18.70
6627;DHT22;3349;49.830;8.748;2023-06-10T13:22:48;36.20;18.50
6627;DHT22;3349;49.830;8.748;2023-06-10T13:25:15;35.20;19.20
6627;DHT22;3349;49.830;8.748;2023-06-10T13:27:43;34.50;20.10
6627;DHT22;3349;49.830;8.748;2023-06-10T13:30:11;34.00;21.10
6627;DHT22;3349;49.830;8.748;2023-06-10T13:32:38;33.60;21.60
6627;DHT22;3349;49.830;8.748;2023-06-10T13:35:05;33.10;21.80
6627;DHT22;3349;49.830;8.748;2023-06-10T13:37:32;33.00;22.60
6627;DHT22;3349;49.830;8.748;2023-06-10T13:40:00;32.70;23.50
6627;DHT22;3349;49.830;8.748;2023-06-10T13:42:27;32.50;23.80
6627;DHT22;3349;49.830;8.748;2023-06-10T13:44:56;32.50;22.30
6627;DHT22;3349;49.830;8.748;2023-06-10T13:47:23;32.30;22.40
6627;DHT22;3349;49.830;8.748;2023-06-10T13:49:49;32.00;23.80
6627;DHT22;3349;49.830;8.748;2023-06-10T13:52:16;32.20;23.80
6627;DHT22;3349;49.830;8.748;2023-06-10T13:54:43;32.20;23.20
6627;DHT22;3349;49.830;8.748;2023-06-10T13:57:10;32.30;23.40
6627;DHT22;3349;49.830;8.748;2023-06-10T13:59:36;32.20;23.30
6627;DHT22;3349;49.830;8.748;2023-06-10T14:02:05;32.10;23.10
6627;DHT22;3349;49.830;8.748;2023-06-10T14:04:31;32.60;23.70
6627;DHT22;3349;49.830;8.748;2023-06-10T14:06:58;32.60;23.40
6627;DHT22;3349;49.830;8.748;2023-06-10T14:09:26;32.80;22.90
6627;DHT22;3349;49.830;8.748;2023-06-10T14:11:53;32.90;22.70
6627;DHT22;3349;49.830;8.748;2023-06-10T14:14:19;32.90;23.20
6627;DHT22;3349;49.830;8.748;2023-06-10T14:16:47;33.00;22.60
6627;DHT22;3349;49.830;8.748;2023-06-10T14:19:16;33.10;22.70
6627;DHT22;3349;49.830;8.748;2023-06-10T14:21:42;33.60;22.90
6627;DHT22;3349;49.830;8.748;2023-06-10T14:24:09;34.00;22.60
6627;DHT22;3349;49.830;8.748;2023-06-10T14:26:36;34.00;21.70
6627;DHT22;3349;49.830;8.748;2023-06-10T14:29:02;34.30;22.30
6627;DHT22;3349;49.830;8.748;2023-06-10T14:31:29;34.00;21.90
6627;DHT22;3349;49.830;8.748;2023-06-10T14:33:56;34.00;22.10
6627;DHT22;3349;49.830;8.748;2023-06-10T14:36:24;33.80;22.20
6627;DHT22;3349;49.830;8.748;2023-06-10T14:38:51;33.90;22.30
6627;DHT22;3349;49.830;8.748;2023-06-10T14:41:17;34.00;22.10
6627;DHT22;3349;49.830;8.748;2023-06-10T14:43:44;33.80;21.70
6627;DHT22;3349;49.830;8.748;2023-06-10T14:46:11;34.10;22.20
6627;DHT22;3349;49.830;8.748;2023-06-10T14:48:38;34.00;22.10
6627;DHT22;3349;49.830;8.748;2023-06-10T14:51:04;34.00;21.40
6627;DHT22;3349;49.830;8.748;2023-06-10T14:53:32;33.70;21.00
6627;DHT22;3349;49.830;8.748;2023-06-10T14:56:00;33.50;21.60
6627;DHT22;3349;49.830;8.748;2023-06-10T14:58:26;33.30;22.00
6627;DHT22;3349;49.830;8.748;2023-06-10T15:00:53;33.10;21.80
6627;DHT22;3349;49.830;8.748;2023-06-10T15:03:20;33.00;22.60
6627;DHT22;3349;49.830;8.748;2023-06-10T15:05:46;33.00;22.10
6627;DHT22;3349;49.830;8.748;2023-06-10T15:08:13;32.70;21.40
6627;DHT22;3349;49.830;8.748;2023-06-10T15:10:41;32.60;21.90
6627;DHT22;3349;49.830;8.748;2023-06-10T15:13:08;32.30;22.10
6627;DHT22;3349;49.830;8.748;2023-06-10T15:15:35;31.90;22.60
6627;DHT22;3349;49.830;8.748;2023-06-10T15:18:01;31.90;22.50
6627;DHT22;3349;49.830;8.748;2023-06-10T15:20:28;31.70;23.60
6627;DHT22;3349;49.830;8.748;2023-06-10T15:22:55;31.70;23.60
6627;DHT22;3349;49.830;8.748;2023-06-10T15:25:22;31.70;23.60
6627;DHT22;3349;49.830;8.748;2023-06-10T15:27:50;31.60;23.60
6627;DHT22;3349;49.830;8.748;2023-06-10T15:30:17;31.40;23.40
6627;DHT22;3349;49.830;8.748;2023-06-10T15:32:44;31.40;23.40
6627;DHT22;3349;49.830;8.748;2023-06-10T15:35:11;31.40;22.80
6627;DHT22;3349;49.830;8.748;2023-06-10T15:37:37;31.50;23.50
6627;DHT22;3349;49.830;8.748;2023-06-10T15:40:06;31.60;23.60
6627;DHT22;3349;49.830;8.748;2023-06-10T15:42:33;31.70;23.60
6627;DHT22;3349;49.830;8.748;2023-06-10T15:45:01;31.60;23.30
6627;DHT22;3349;49.830;8.748;2023-06-10T15:47:27;31.50;23.50
6627;DHT22;3349;49.830;8.748;2023-06-10T15:49:54;31.40;24.10
6627;DHT22;3349;49.830;8.748;2023-06-10T15:52:21;31.40;23.50
6627;DHT22;3349;49.830;8.748;2023-06-10T15:54:48;31.30;24.50
6627;DHT22;3349;49.830;8.748;2023-06-10T15:57:14;31.30;23.90
6627;DHT22;3349;49.830;8.748;2023-06-10T15:59:42;31.20;23.90
6627;DHT22;3349;49.830;8.748;2023-06-10T16:02:10;31.30;24.30
6627;DHT22;3349;49.830;8.748;2023-06-10T16:04:37;31.30;24.40
6627;DHT22;3349;49.830;8.748;2023-06-10T16:07:04;31.20;24.30